Free Trial

SPDR S&P Oil & Gas Equipment & Services ETF (XES) Institutional Ownership

$128.68 -0.41 (-0.32%)
As of 04:10 PM Eastern

Institutional Ownership Changes (13F Filings) for SPDR S&P Oil & Gas Equipment & Services ETF (NYSEARCA:XES)

Number of
Institutional Buyers
(last 12 months)
28
Total
Institutional Inflows
(last 12 months)
$66.39M
Number of
Institutional Sellers
(last 12 months)
17
Total
Institutional Outflows
(last 12 months)
$10.76M
Get XES Insider Trade Alerts

Want to know when executives and insiders are buying or selling SPDR S&P Oil & Gas Equipment & Services ETF stock? Sign up for InsiderTrades.com's daily newsletter to get the latest insider transactions delivered to your inbox daily.

SMS is currently available in Australia, Belgium, Canada, France, Germany, Ireland, Italy, New Zealand, the Netherlands, Singapore, South Africa, Spain, Switzerland, the United Kingdom, and the United States. By entering your phone number and clicking the sign-up button, you agree to receive periodic text messages from MarketBeat at the phone number you submitted, including texts that may be sent using an automatic telephone dialing system. Message and data rates may apply. Message frequency will vary. Messages will consist of stock alerts, news stories, and partner advertisements/offers. Consent is not a condition of the purchase of any goods or services. Text HELP for help/customer support. Unsubscribe at any time by replying "STOP" to any text message that you receive from MarketBeat or by visiting our mailing preferences page. Read our full terms of service and privacy policy.
Skip Chart & View Institutional Buying and Selling Data

XES Institutional Buying and Selling by Quarter

SPDR S&P Oil & Gas Equipment & Services ETF Major Shareholders & Ownership History

Reporting DateMajor Shareholder NameShares HeldMarket Value% of PortfolioQuarterly Change in SharesOwnership in CompanyDetails
5/1/2026 Fifth Third Bancorp275$32K0.0%N/A0.006%
4/28/2026 Meridian Investment Counsel Inc.19,775$2.30M0.5%+16.9%0.469%
4/27/2026 Private Advisor Group LLC8,626$1.00M0.0%-14.1%0.207%
4/27/2026 Trademark Financial Management LLC2,203$256K0.1%N/A0.053%
4/24/2026 Root Financial Partners LLC347$40K0.0%+66.0%0.008%
4/23/2026 Vicus Capital36,361$4.23M0.3%N/A0.874%
2/19/2026 First Growth Capital LLC5,396$442K0.4%N/A0.147%
2/17/2026Cetera Investment Advisers26,024$2.13M0.0%-4.3%0.711%
2/17/2026Tower Research Capital LLC TRC 10,955$898K0.0%-56.7%0.299%
2/17/2026Concorde Financial Corp2,571$211K0.2%N/A0.070%
2/17/2026Aspen Grove Capital LLC10,875$891K0.2%-45.7%0.297%
2/17/2026Royal Bank of Canada31,411$2.58M0.0%+23.0%0.858%
2/13/2026Stifel Financial Corp5,946$487K0.0%N/A0.162%
2/13/2026Wells Fargo & Company MN37,135$3.04M0.0%+78.0%1.015%
2/12/2026StoneX Group Inc.2,940$241K0.0%N/A0.080%
2/11/2026LPL Financial LLC64,929$5.32M0.0%+20.7%1.774%
2/11/2026Invst LLC16,337$1.34M0.1%-0.7%0.446%
2/10/2026Goldman Sachs Group Inc.124,579$10.21M0.0%+127.5%3.404%
2/10/2026 Black Swift Group LLC72,505$5.94M1.0%N/A1.981%
2/6/2026PNC Financial Services Group Inc.4,052$332K0.0%-2.9%0.111%
2/4/2026Trek Financial LLC27,099$2.22M0.1%+3.4%0.770%
1/30/2026New Harbor Financial Group LLC365,766$29.98M5.5%N/A10.571%
1/26/2026CWM LLC24,231$1.99M0.0%+616.3%0.730%
1/26/2026 BCS Private Wealth Management Inc.16,900$1.39M0.5%N/A0.509%
1/20/2026 Meridian Investment Counsel Inc.16,920$1.39M0.3%-4.5%0.502%
1/20/2026 Stratos Wealth Advisors LLC5,300$434K0.0%-50.0%0.157%
11/17/2025Flow Traders U.S. LLC24,753$1.79M0.1%+23.2%0.862%
11/17/2025Bank of America Corp DE55,006$3.98M0.0%+4.3%1.917%
11/14/2025Raymond James Financial Inc.59,159$4.28M0.0%+1,260.6%2.061%
11/14/2025Financial Sense Advisors Inc.7,717$558K0.1%-11.8%0.269%
11/14/2025Tower Research Capital LLC TRC 25,289$1.83M0.1%N/A0.881%
11/13/2025UBS Group AG12,597$911K0.0%+1.3%0.439%
11/10/2025OneDigital Investment Advisors LLC4,486$325K0.0%-9.9%0.156%
11/7/2025PNC Financial Services Group Inc.4,174$302K0.0%-22.4%0.145%
11/6/2025Wealthfront Advisers LLC5,683$411K0.0%-5.5%0.198%
11/5/2025 Envestnet Asset Management Inc.5,304$384K0.0%-8.7%0.185%
10/31/2025Trek Financial LLC26,212$1.90M0.1%N/A0.930%
10/23/2025 Meridian Investment Counsel Inc.17,720$1.28M0.3%-1.1%0.654%
10/15/2025CWM LLC3,383$245K0.0%+107.4%0.125%
9/4/2025Osaic Holdings Inc.1,423$90K0.0%+50.7%0.063%
8/15/2025Bank of America Corp DE52,755$3.35M0.0%-68.9%2.324%
8/14/2025Raymond James Financial Inc.4,348$276K0.0%-4.3%0.192%
8/14/2025Concorde Financial Corp2,571$163K0.1%N/A0.113%
8/14/2025 BCS Private Wealth Management Inc.6,900$438K0.2%N/A0.304%
8/13/2025Flow Traders U.S. LLC20,092$1.28M0.0%+509.6%0.885%
8/12/2025Horizon Kinetics Asset Management LLC9,697$615K0.0%-29.1%0.427%
8/12/2025JPMorgan Chase & Co.725$46K0.0%-47.0%0.032%
8/8/2025Cetera Investment Advisers42,526$2.70M0.0%+172.5%1.837%
8/8/2025PNC Financial Services Group Inc.5,378$341K0.0%+70.6%0.232%
8/1/2025 Envestnet Asset Management Inc.5,811$369K0.0%-8.4%0.251%
7/31/2025Wealthfront Advisers LLC6,015$382K0.0%+7.5%0.260%
7/29/2025 Stratos Wealth Advisors LLC10,605$673K0.0%N/A0.458%
7/22/2025 Belpointe Asset Management LLC7,651$485K0.0%-7.7%0.330%
7/16/2025 Meridian Investment Counsel Inc.17,920$1.14M0.3%+2.1%0.758%
2/13/2025Keystone Financial Group3,958$312K0.0%N/A0.119%
2/12/2025JPMorgan Chase & Co.162,235$12.80M0.0%+470.0%4.887%
1/15/2025Householder Group Estate & Retirement Specialist LLC4,675$368K0.3%N/A0.141%
12/26/2024JPMorgan Chase & Co.28,463$2.30M0.0%+7.7%0.857%
11/14/2024Flow Traders U.S. LLC3,724$301K0.0%+37.3%0.112%
11/8/2024Avior Wealth Management LLC352$28K0.0%-49.5%0.011%
8/14/2024Marshall Wace LLP2,562$233K0.0%N/A0.077%
5/15/2024Transcendent Capital Group LLC906$84K0.0%+33.0%0.027%
5/1/2024Janney Capital Management LLC53,227$4.96M0.3%-2.2%1.603%
5/1/2024Janney Montgomery Scott LLC6,842$637K0.0%-40.5%0.206%
3/1/2024Transcendent Capital Group LLC681$58K0.0%N/A0.018%
2/14/2024Barometer Capital Management Inc.5,400$456K0.1%-41.3%0.145%
2/8/2024Janney Montgomery Scott LLC11,507$972K0.0%+13.2%0.309%
2/8/2024Janney Capital Management LLC54,435$4.60M0.3%-49.9%1.463%
1/12/2024Financial Management Professionals Inc.25,313$2.14M0.3%N/A0.680%
11/15/2023Baker Avenue Asset Management LP21,928$2.10M0.1%N/A0.589%
11/8/2023Janney Montgomery Scott LLC10,168$974K0.0%+4.9%0.273%
11/8/2023Barometer Capital Management Inc.9,200$881K0.3%-8.0%0.247%
11/8/2023Janney Capital Management LLC108,726$10.41M0.8%-4.3%2.923%
11/4/2023EverSource Wealth Advisors LLC312$30K0.0%+721.1%0.008%
10/27/2023Whittier Trust Co.637$61K0.0%+49.5%0.017%
10/18/2023CX Institutional4,645$445K0.0%N/A0.125%
8/14/2023Horizon Kinetics Asset Management LLC37,969$2.97M0.1%+29.2%1.021%
8/7/2023Keystone Financial Group4,571$357K0.1%N/A0.123%
7/26/2023Janney Capital Management LLC113,584$8.88M0.6%-3.1%2.547%
7/26/2023Janney Montgomery Scott LLC9,689$757K0.0%+10.7%0.217%
6/1/2023ORG Partners LLC11,968$900K0.2%N/A0.259%
5/11/2023EverSource Wealth Advisors LLC33,804$2.54M0.3%N/A0.732%
5/5/2023Cullen Frost Bankers Inc.625$47K0.0%N/A0.014%
4/28/2023Janney Capital Management LLC117,177$8.81M0.7%N/A2.536%
4/28/2023Janney Montgomery Scott LLC8,753$658K0.0%N/A0.189%
2/7/2023Hollencrest Capital Management7,073$564K0.1%N/A0.172%
2/3/2023CX Institutional12,616$1.01M0.1%-11.7%0.306%
1/24/2023RFP Financial Group LLC1,740$139K0.1%N/A0.042%
11/14/2022Barometer Capital Management Inc.5,400$298K0.1%N/A0.117%
9/16/2022Private Trust Co. NA1,000$60K0.0%N/A0.023%
8/11/2022JPMorgan Chase & Co.748,968$44.70M0.0%+457.0%17.581%
5/6/2022Washburn Capital Management Inc.7,115$534K0.3%+71.9%0.154%
5/2/2022Migdal Insurance & Financial Holdings Ltd.770$58K0.0%N/A0.017%
4/18/2022Hollencrest Capital Management4,124$309K0.0%N/A0.088%
4/13/2022New Harbor Financial Group LLC376,400$28.25M10.0%N/A8.337%


XES Institutional Ownership - Frequently Asked Questions

Who are the largest shareholders of XES shares?

During the previous two years, 42 institutional investors and hedge funds held shares of SPDR S&P Oil & Gas Equipment & Services ETF. The most heavily invested institutionals were New Harbor Financial Group LLC ($29.98M), Goldman Sachs Group Inc. ($10.21M), Black Swift Group LLC ($5.94M), LPL Financial LLC ($5.32M), Raymond James Financial Inc. ($4.28M), Vicus Capital ($4.23M), and Bank of America Corp DE ($3.98M).Learn more on SPDR S&P Oil & Gas Equipment & Services ETF's institutional investors.

Which institutional investors have been buying SPDR S&P Oil & Gas Equipment & Services ETF's stock?

Of the 33 institutional investors that purchased SPDR S&P Oil & Gas Equipment & Services ETF's stock in the last 24 months, the following investors and hedge funds have bought the highest volume of shares: New Harbor Financial Group LLC ($365.77K), JPMorgan Chase & Co. ($135.80K), Black Swift Group LLC ($72.51K), Goldman Sachs Group Inc. ($69.82K), Raymond James Financial Inc. ($54.81K), Vicus Capital ($36.36K), and Trek Financial LLC ($27.10K).

How much institutional buying is happening at SPDR S&P Oil & Gas Equipment & Services ETF?

Institutional investors have bought a total of 821,137 shares in the last 24 months. This purchase volume represents approximately $66.39M in transactions.

Which of SPDR S&P Oil & Gas Equipment & Services ETF's major shareholders have been selling company stock?

Of the 17 institutional investors that sold SPDR S&P Oil & Gas Equipment & Services ETF's stock in the last 24 months, the following investors and hedge funds have sold the highest volume of shares: Bank of America Corp DE ($116.65K), Tower Research Capital LLC TRC ($14.33K), Aspen Grove Capital LLC ($9.14K), Stratos Wealth Advisors LLC ($5.31K), Horizon Kinetics Asset Management LLC ($3.99K), Private Advisor Group LLC ($1.42K), and PNC Financial Services Group Inc. ($1.33K).

How much institutional selling is happening at SPDR S&P Oil & Gas Equipment & Services ETF?

Institutional investors have sold a total of 158,829 shares in the last 24 months. This volume of shares sold represents approximately $10.76M in transactions.



This page (NYSEARCA:XES) was last updated on 5/5/2026 by MarketBeat.com Staff.
From Our Partners